Time;durP1;ratioP1;P1;durP2;ratioP2;P2;SDS_P1;SDS_P2;PMS_P1;PMS_P2;Temp;Humidity;BMP_temperature;BMP_pressure;BME280_temperature;BME280_humidity;BME280_pressure;Samples;Min_cycle;Max_cycle;Signal;HPM_P1;HPM_P2
2024/01/06 00:01:15;;;;;;;3.55;1.35;;;;;;;7.32;100.00;96509.72;5018730;28;20054;-79
2024/01/06 00:03:42;;;;;;;4.43;1.52;;;;;;;7.22;100.00;96515.44;5015332;28;20096;-79
2024/01/06 00:06:12;;;;;;;4.85;1.58;;;;;;;7.15;100.00;96500.88;5019618;28;20427;-79
2024/01/06 00:08:39;;;;;;;5.68;1.70;;;;;;;7.14;100.00;96499.28;5018546;28;20065;-78
2024/01/06 00:11:06;;;;;;;6.22;1.23;;;;;;;7.11;100.00;96506.13;5020458;28;20041;-79
2024/01/06 00:13:32;;;;;;;5.68;1.83;;;;;;;7.01;100.00;96506.44;5018086;28;20042;-77
2024/01/06 00:16:00;;;;;;;5.82;1.60;;;;;;;7.02;100.00;96496.47;5018080;28;20092;-78
2024/01/06 00:18:27;;;;;;;11.90;2.22;;;;;;;6.99;100.00;96508.69;5016173;28;20527;-77
2024/01/06 00:20:54;;;;;;;5.63;1.70;;;;;;;7.00;100.00;96502.16;5022587;28;20570;-78
2024/01/06 00:23:21;;;;;;;5.25;1.60;;;;;;;6.92;100.00;96513.72;5030493;28;20049;-78
2024/01/06 00:25:47;;;;;;;5.32;1.70;;;;;;;7.05;100.00;96511.97;5027695;28;20415;-78
2024/01/06 00:28:14;;;;;;;3.60;1.92;;;;;;;7.26;100.00;96516.38;5010869;28;20041;-78
2024/01/06 00:30:41;;;;;;;6.35;1.50;;;;;;;7.19;100.00;96526.03;5020036;28;20097;-77
2024/01/06 00:33:08;;;;;;;6.70;1.88;;;;;;;7.17;100.00;96518.31;5050836;28;20046;-80
2024/01/06 00:35:34;;;;;;;5.50;1.92;;;;;;;7.12;100.00;96517.66;5004525;28;20053;-79
2024/01/06 00:38:02;;;;;;;3.65;1.67;;;;;;;7.11;100.00;96506.13;5009623;28;20112;-79
2024/01/06 00:40:29;;;;;;;5.97;1.85;;;;;;;7.19;100.00;96521.44;5014461;28;20049;-79
2024/01/06 00:42:55;;;;;;;3.78;1.70;;;;;;;7.36;100.00;96513.31;5038693;28;20389;-80
2024/01/06 00:45:22;;;;;;;9.00;2.45;;;;;;;7.21;100.00;96510.34;5028269;28;20045;-78
2024/01/06 00:47:49;;;;;;;3.97;1.73;;;;;;;7.29;100.00;96523.81;5022114;28;20042;-79
2024/01/06 00:50:19;;;;;;;5.38;1.70;;;;;;;7.39;100.00;96525.34;5010533;28;20050;-77
2024/01/06 00:52:46;;;;;;;10.05;2.03;;;;;;;7.36;100.00;96518.72;5019737;28;20053;-79
2024/01/06 00:55:13;;;;;;;5.35;2.00;;;;;;;7.39;100.00;96528.03;5015046;28;20033;-79
2024/01/06 00:57:40;;;;;;;6.13;1.90;;;;;;;7.49;100.00;96523.09;5017717;28;20053;-80
2024/01/06 01:00:07;;;;;;;8.60;2.10;;;;;;;7.22;100.00;96520.03;5016483;28;20053;-78
2024/01/06 01:02:34;;;;;;;6.72;1.67;;;;;;;7.39;100.00;96528.84;5014902;28;20103;-78
2024/01/06 01:05:07;;;;;;;7.40;1.90;;;;;;;7.34;100.00;96528.22;5026699;28;20460;-77
2024/01/06 01:07:34;;;;;;;7.30;1.73;;;;;;;7.41;100.00;96534.69;5017544;28;20048;-79
2024/01/06 01:10:01;;;;;;;3.70;1.63;;;;;;;7.56;100.00;96527.22;5021124;28;20049;-80
2024/01/06 01:12:28;;;;;;;4.68;1.92;;;;;;;7.65;100.00;96536.84;5004120;28;20034;-79
2024/01/06 01:14:55;;;;;;;4.05;1.63;;;;;;;7.73;100.00;96532.53;5025042;28;20471;-79
2024/01/06 01:17:23;;;;;;;7.20;1.92;;;;;;;7.61;100.00;96535.91;5020958;28;20111;-79
2024/01/06 01:19:50;;;;;;;7.65;1.40;;;;;;;7.65;100.00;96538.72;5024178;28;20046;-80
2024/01/06 01:22:17;;;;;;;6.32;1.65;;;;;;;7.63;100.00;96536.38;5023460;28;20046;-78
2024/01/06 01:24:43;;;;;;;5.97;1.60;;;;;;;7.66;100.00;96548.41;5013345;28;20048;-79
2024/01/06 01:27:10;;;;;;;9.75;1.70;;;;;;;7.70;100.00;96552.03;5032491;28;20175;-77
2024/01/06 01:29:37;;;;;;;4.78;1.50;;;;;;;7.71;100.00;96561.69;5022306;28;20060;-77
2024/01/06 01:32:05;;;;;;;7.93;1.70;;;;;;;7.65;100.00;96552.19;5007593;28;20096;-79
2024/01/06 01:34:31;;;;;;;3.60;1.77;;;;;;;7.61;100.00;96562.84;5010187;28;20462;-79
2024/01/06 01:36:59;;;;;;;6.60;1.85;;;;;;;7.49;100.00;96552.72;5030730;28;20077;-79
2024/01/06 01:39:26;;;;;;;5.93;2.13;;;;;;;7.44;100.00;96560.19;5030155;28;20066;-79
2024/01/06 01:41:53;;;;;;;7.50;2.67;;;;;;;7.33;100.00;96554.34;5037270;28;20137;-76
2024/01/06 01:44:22;;;;;;;8.05;2.95;;;;;;;7.19;100.00;96556.44;5036893;28;20052;-79
2024/01/06 01:46:49;;;;;;;7.15;2.80;;;;;;;7.11;100.00;96548.38;5025489;28;20042;-79
2024/01/06 01:49:15;;;;;;;5.60;2.80;;;;;;;7.03;100.00;96558.03;5023367;28;20045;-79
2024/01/06 01:51:44;;;;;;;6.40;2.80;;;;;;;6.96;100.00;96551.56;5017806;28;20065;-79
2024/01/06 01:54:11;;;;;;;6.40;3.00;;;;;;;6.82;100.00;96551.72;5023010;28;20049;-79
2024/01/06 01:56:41;;;;;;;7.05;2.75;;;;;;;6.84;100.00;96558.34;5022324;28;20057;-80
2024/01/06 01:59:13;;;;;;;8.63;2.75;;;;;;;6.72;100.00;96555.50;5011667;28;20045;-79
2024/01/06 02:01:40;;;;;;;7.30;2.90;;;;;;;6.58;100.00;96559.47;5017045;28;20038;-78
2024/01/06 02:04:08;;;;;;;8.93;2.45;;;;;;;6.57;100.00;96557.88;5023672;28;20045;-79
2024/01/06 02:06:35;;;;;;;8.63;2.45;;;;;;;6.31;100.00;96548.97;5026311;28;22070;-79
2024/01/06 02:09:02;;;;;;;7.70;2.67;;;;;;;6.20;100.00;96562.72;5032847;28;20099;-78
2024/01/06 02:11:29;;;;;;;4.72;2.45;;;;;;;6.23;100.00;96556.72;4983315;28;20065;-79
2024/01/06 02:13:56;;;;;;;5.20;2.72;;;;;;;6.02;100.00;96571.03;5029980;28;20096;-79
2024/01/06 02:16:25;;;;;;;7.90;3.42;;;;;;;6.00;100.00;96557.94;5029625;28;20129;-79
2024/01/06 02:18:52;;;;;;;18.05;6.38;;;;;;;5.93;100.00;96559.47;5035889;28;20049;-77
2024/01/06 02:21:22;;;;;;;16.00;4.85;;;;;;;5.87;100.00;96553.47;5030581;28;20049;-77
2024/01/06 02:23:49;;;;;;;11.18;5.03;;;;;;;5.89;100.00;96575.41;5032147;28;20041;-78
2024/01/06 02:26:16;;;;;;;9.10;3.60;;;;;;;5.82;100.00;96566.19;5035319;28;20041;-78
2024/01/06 02:28:47;;;;;;;11.50;4.20;;;;;;;5.58;100.00;96574.63;5021752;28;20041;-77
2024/01/06 02:31:14;;;;;;;12.48;3.70;;;;;;;5.21;100.00;96585.78;5027200;28;20407;-80
2024/01/06 02:33:41;;;;;;;6.95;2.80;;;;;;;4.94;100.00;96578.63;5019149;28;20085;-80
2024/01/06 02:36:08;;;;;;;8.35;3.30;;;;;;;4.87;100.00;96584.44;5026720;28;20067;-78
2024/01/06 02:38:35;;;;;;;6.93;2.95;;;;;;;5.09;100.00;96574.78;5024645;28;20052;-78
2024/01/06 02:41:02;;;;;;;7.40;3.13;;;;;;;5.17;100.00;96576.75;5030641;28;20199;-80
2024/01/06 02:43:29;;;;;;;6.72;2.78;;;;;;;5.22;100.00;96568.56;5054177;28;20129;-79
2024/01/06 02:45:55;;;;;;;7.22;3.38;;;;;;;5.31;100.00;96569.44;5030686;28;20116;-80
2024/01/06 02:48:22;;;;;;;13.98;4.05;;;;;;;5.07;100.00;96582.34;5017272;28;20049;-79
2024/01/06 02:50:49;;;;;;;5.15;2.58;;;;;;;5.12;100.00;96577.66;5019279;28;20532;-77
2024/01/06 02:53:16;;;;;;;14.85;3.95;;;;;;;5.10;100.00;96577.19;5022479;28;20046;-79
2024/01/06 02:55:43;;;;;;;15.63;4.22;;;;;;;4.97;100.00;96572.66;5018741;28;20060;-79
2024/01/06 02:58:10;;;;;;;15.85;5.00;;;;;;;4.92;100.00;96578.97;5015584;28;20045;-79
2024/01/06 03:00:37;;;;;;;11.15;3.42;;;;;;;4.95;100.00;96583.72;5017380;28;20096;-80
2024/01/06 03:03:04;;;;;;;18.20;4.78;;;;;;;4.97;100.00;96583.41;5017274;28;20050;-78
2024/01/06 03:05:31;;;;;;;10.77;3.00;;;;;;;4.94;100.00;96578.63;5014703;28;20083;-77
2024/01/06 03:07:57;;;;;;;13.10;4.63;;;;;;;4.86;100.00;96590.88;5028874;28;20044;-78
2024/01/06 03:10:24;;;;;;;22.42;5.13;;;;;;;4.74;100.00;96590.63;5020601;28;20143;-79
2024/01/06 03:12:51;;;;;;;18.33;4.30;;;;;;;4.26;100.00;96608.28;5018041;28;20108;-78
2024/01/06 03:15:18;;;;;;;18.40;4.57;;;;;;;4.19;100.00;96587.28;5022003;28;20512;-76
2024/01/06 03:17:45;;;;;;;20.23;4.20;;;;;;;4.07;100.00;96594.22;4987430;28;20046;-78
2024/01/06 03:20:15;;;;;;;13.07;3.78;;;;;;;4.13;100.00;96601.84;5016825;28;20557;-77
2024/01/06 03:22:43;;;;;;;12.23;3.40;;;;;;;4.16;100.00;96609.28;5027889;28;20038;-78
2024/01/06 03:25:10;;;;;;;10.45;2.88;;;;;;;4.09;100.00;96600.88;5021109;28;20041;-78
2024/01/06 03:27:36;;;;;;;6.68;2.60;;;;;;;4.19;100.00;96599.88;5021427;28;20037;-78
2024/01/06 03:30:04;;;;;;;6.28;3.20;;;;;;;4.10;100.00;96602.47;5014604;28;20054;-78
2024/01/06 03:32:34;;;;;;;6.60;2.80;;;;;;;4.17;100.00;96608.22;5015305;28;20057;-80
2024/01/06 03:35:00;;;;;;;6.70;2.83;;;;;;;4.23;100.00;96607.00;5027291;28;20053;-78
2024/01/06 03:37:27;;;;;;;8.15;2.75;;;;;;;4.29;100.00;96605.81;5027132;28;20120;-77
2024/01/06 03:40:03;;;;;;;7.75;2.83;;;;;;;4.39;100.00;96616.31;5019364;28;20462;-78
2024/01/06 03:42:30;;;;;;;7.15;2.55;;;;;;;4.08;100.00;96611.88;5041435;28;20036;-77
2024/01/06 03:44:56;;;;;;;10.57;2.70;;;;;;;3.92;100.00;96618.63;5029019;28;20045;-78
2024/01/06 03:47:23;;;;;;;6.35;3.00;;;;;;;4.17;100.00;96623.47;5024437;28;20042;-76
2024/01/06 03:49:50;;;;;;;10.48;3.30;;;;;;;4.38;100.00;96622.78;5029172;28;20041;-80
2024/01/06 03:52:17;;;;;;;8.18;3.03;;;;;;;4.42;100.00;96617.59;5013248;28;20048;-80
2024/01/06 03:54:44;;;;;;;8.13;3.17;;;;;;;4.33;100.00;96628.25;5013702;28;20440;-77
2024/01/06 03:57:10;;;;;;;6.57;3.13;;;;;;;4.18;100.00;96614.38;5019327;28;20049;-77
2024/01/06 03:59:37;;;;;;;8.55;3.33;;;;;;;4.04;100.00;96613.56;5021456;28;20091;-77
2024/01/06 04:02:04;;;;;;;9.15;3.38;;;;;;;4.06;100.00;96616.72;5020148;28;20428;-77
2024/01/06 04:04:33;;;;;;;6.32;2.88;;;;;;;4.01;100.00;96624.88;5015371;28;20104;-78
2024/01/06 04:07:01;;;;;;;6.95;2.70;;;;;;;4.09;100.00;96634.88;5028688;28;20495;-77
2024/01/06 04:09:28;;;;;;;10.82;3.30;;;;;;;3.74;100.00;96623.75;5025978;28;20050;-78
2024/01/06 04:11:54;;;;;;;6.13;3.20;;;;;;;3.74;100.00;96633.69;5017311;28;20124;-80
2024/01/06 04:14:21;;;;;;;10.60;3.20;;;;;;;3.84;100.00;96640.72;5016272;28;20049;-79
2024/01/06 04:16:48;;;;;;;8.20;3.55;;;;;;;3.85;100.00;96621.69;5021277;28;20649;-77
2024/01/06 04:19:17;;;;;;;7.53;3.03;;;;;;;3.95;100.00;96624.16;5018870;28;20133;-77
2024/01/06 04:21:44;;;;;;;7.88;3.65;;;;;;;3.97;100.00;96618.53;5021796;28;20041;-78
2024/01/06 04:24:11;;;;;;;8.88;3.55;;;;;;;3.84;100.00;96622.78;5019409;28;20061;-78
2024/01/06 04:26:38;;;;;;;5.88;3.10;;;;;;;3.77;100.00;96623.16;5025586;28;20037;-77
2024/01/06 04:29:05;;;;;;;7.60;3.30;;;;;;;3.58;100.00;96624.34;5020433;28;20048;-78
2024/01/06 04:31:34;;;;;;;6.57;2.78;;;;;;;3.79;100.00;96644.28;5020905;28;20046;-76
2024/01/06 04:34:03;;;;;;;7.93;3.17;;;;;;;3.91;100.00;96638.44;5024727;28;20057;-78
2024/01/06 04:36:30;;;;;;;8.38;3.42;;;;;;;3.93;100.00;96631.69;5019770;28;20046;-78
2024/01/06 04:38:56;;;;;;;21.33;6.07;;;;;;;4.12;100.00;96624.38;5021283;28;20060;-76
2024/01/06 04:41:23;;;;;;;13.07;4.13;;;;;;;3.93;100.00;96631.69;5020899;28;20504;-80
2024/01/06 04:43:50;;;;;;;7.00;2.97;;;;;;;4.07;100.00;96618.31;5034593;28;20069;-77
2024/01/06 04:46:17;;;;;;;7.47;2.75;;;;;;;4.10;100.00;96623.91;5023493;28;20046;-78
2024/01/06 04:48:44;;;;;;;5.78;2.42;;;;;;;4.25;100.00;96636.19;5020284;28;20050;-79
2024/01/06 04:51:11;;;;;;;9.80;2.92;;;;;;;4.26;100.00;96627.03;5022381;28;20045;-79
2024/01/06 04:53:38;;;;;;;6.68;3.00;;;;;;;4.28;100.00;96643.63;5020549;28;20041;-78
2024/01/06 04:56:05;;;;;;;8.48;3.47;;;;;;;4.19;100.00;96629.31;5021426;28;20049;-77
2024/01/06 04:58:32;;;;;;;7.07;3.03;;;;;;;4.23;100.00;96635.69;5022931;28;20050;-78
2024/01/06 05:00:58;;;;;;;6.88;3.20;;;;;;;4.20;100.00;96637.09;5029203;28;20061;-78
2024/01/06 05:03:25;;;;;;;6.45;2.85;;;;;;;4.19;100.00;96626.66;5023807;28;20408;-77
2024/01/06 05:05:52;;;;;;;4.93;2.63;;;;;;;4.09;100.00;96646.41;5005071;28;20515;-77
2024/01/06 05:08:22;;;;;;;9.07;3.30;;;;;;;4.00;100.00;96642.03;5024454;28;20582;-77
2024/01/06 05:10:49;;;;;;;17.85;6.40;;;;;;;3.82;100.00;96645.59;5024641;28;20052;-78
2024/01/06 05:13:17;;;;;;;12.00;4.35;;;;;;;3.77;100.00;96641.09;5022426;28;20053;-77
2024/01/06 05:15:44;;;;;;;6.18;2.88;;;;;;;3.82;100.00;96645.59;5025863;28;20046;-77
2024/01/06 05:18:10;;;;;;;13.20;3.25;;;;;;;3.91;100.00;96643.78;5021109;28;20588;-77
2024/01/06 05:20:38;;;;;;;14.23;5.68;;;;;;;4.03;100.00;96654.81;5019189;28;20037;-77
2024/01/06 05:23:04;;;;;;;11.95;4.30;;;;;;;3.97;100.00;96656.81;5021676;28;20085;-78
2024/01/06 05:25:31;;;;;;;8.85;3.70;;;;;;;3.90;100.00;96653.72;5020462;28;20049;-77
2024/01/06 05:27:58;;;;;;;5.45;3.15;;;;;;;3.88;100.00;96658.56;5021055;28;20129;-76
2024/01/06 05:30:25;;;;;;;8.15;3.20;;;;;;;3.92;100.00;96669.50;5021195;28;20797;-78
2024/01/06 05:32:52;;;;;;;5.57;2.80;;;;;;;4.03;100.00;96665.50;5012357;28;20108;-79
2024/01/06 05:35:19;;;;;;;9.48;2.78;;;;;;;3.98;100.00;96654.91;5011128;28;20045;-78
2024/01/06 05:37:45;;;;;;;7.32;3.17;;;;;;;3.73;100.00;96665.00;5028584;28;20064;-78
2024/01/06 05:40:12;;;;;;;6.22;2.95;;;;;;;3.79;100.00;96658.44;5030518;28;20112;-80
2024/01/06 05:42:39;;;;;;;10.95;2.97;;;;;;;3.70;100.00;96670.94;5031241;28;20034;-77
2024/01/06 05:45:06;;;;;;;6.07;2.85;;;;;;;3.81;100.00;96668.88;5022363;28;20500;-79
2024/01/06 05:47:33;;;;;;;4.78;2.70;;;;;;;3.74;100.00;96665.78;5026318;28;20065;-78
2024/01/06 05:50:00;;;;;;;9.75;2.50;;;;;;;3.67;100.00;96676.88;5027751;28;20061;-77
2024/01/06 05:52:26;;;;;;;6.13;2.60;;;;;;;3.60;100.00;96681.00;5023616;28;20042;-79
2024/01/06 05:54:53;;;;;;;11.93;3.25;;;;;;;3.51;100.00;96677.44;5027451;28;20108;-77
2024/01/06 05:57:20;;;;;;;7.63;2.70;;;;;;;3.63;100.00;96685.78;5027841;28;20424;-77
2024/01/06 05:59:47;;;;;;;5.25;2.35;;;;;;;3.75;100.00;96676.19;5028959;28;20053;-77
2024/01/06 06:02:13;;;;;;;9.18;2.78;;;;;;;3.79;100.00;96682.53;5012976;28;20046;-77
2024/01/06 06:04:40;;;;;;;7.40;2.70;;;;;;;3.61;100.00;96682.63;5024861;28;20045;-77
2024/01/06 06:07:07;;;;;;;7.93;2.72;;;;;;;3.46;100.00;96680.19;5036623;28;20099;-78
2024/01/06 06:09:37;;;;;;;7.43;2.78;;;;;;;3.65;100.00;96687.09;5025869;28;20066;-76
2024/01/06 06:12:04;;;;;;;10.60;2.90;;;;;;;3.59;100.00;96698.94;5032257;28;20538;-78
2024/01/06 06:14:31;;;;;;;8.00;3.22;;;;;;;3.60;100.00;96713.13;5022055;28;20093;-77
2024/01/06 06:16:58;;;;;;;9.00;3.47;;;;;;;3.60;100.00;96705.09;5025034;28;20105;-77
2024/01/06 06:19:25;;;;;;;7.93;3.67;;;;;;;3.70;100.00;96721.78;5020584;28;21573;-78
2024/01/06 06:21:52;;;;;;;9.27;3.45;;;;;;;3.74;100.00;96722.00;5022081;28;20050;-78
2024/01/06 06:24:19;;;;;;;9.70;3.80;;;;;;;3.82;100.00;96713.28;5022720;28;20045;-78
2024/01/06 06:26:46;;;;;;;9.95;3.65;;;;;;;3.81;100.00;96725.09;5024138;28;20050;-79
2024/01/06 06:29:13;;;;;;;9.13;3.38;;;;;;;3.96;100.00;96737.41;5029890;28;20056;-77
2024/01/06 06:31:39;;;;;;;7.07;3.22;;;;;;;4.00;100.00;96736.50;5019486;28;20041;-77
2024/01/06 06:34:06;;;;;;;7.57;3.83;;;;;;;3.93;100.00;96748.69;5024670;28;20048;-78
2024/01/06 06:36:35;;;;;;;7.38;2.60;;;;;;;3.91;100.00;96740.16;5021586;28;20053;-78
2024/01/06 06:39:04;;;;;;;7.57;2.90;;;;;;;3.93;100.00;96748.69;5023443;28;20416;-79
2024/01/06 06:41:30;;;;;;;7.93;3.22;;;;;;;3.89;100.00;96745.84;5023042;28;20042;-78
2024/01/06 06:43:57;;;;;;;6.28;3.03;;;;;;;4.03;100.00;96745.84;5033278;28;21706;-79
2024/01/06 06:46:25;;;;;;;6.38;2.78;;;;;;;3.83;100.00;96747.00;5025923;28;20095;-79
2024/01/06 06:48:51;;;;;;;8.10;2.88;;;;;;;3.97;100.00;96752.38;5022077;28;20053;-81
2024/01/06 06:51:18;;;;;;;6.88;2.55;;;;;;;4.07;100.00;96752.22;5018024;28;20041;-79
2024/01/06 06:53:45;;;;;;;6.50;2.83;;;;;;;4.10;100.00;96757.78;5023197;28;20524;-78
2024/01/06 06:56:17;;;;;;;5.43;2.80;;;;;;;3.84;100.00;96742.44;5002882;28;20045;-79
2024/01/06 06:58:43;;;;;;;12.43;3.45;;;;;;;3.88;100.00;96754.94;5013292;28;20050;-78
2024/01/06 07:01:10;;;;;;;7.03;2.97;;;;;;;3.87;100.00;96756.03;5021127;28;20049;-78
2024/01/06 07:03:37;;;;;;;6.13;2.78;;;;;;;3.78;100.00;96760.47;5016011;28;20068;-80
2024/01/06 07:06:04;;;;;;;9.82;3.20;;;;;;;3.73;100.00;96764.03;5019367;28;20045;-80
2024/01/06 07:08:31;;;;;;;11.73;4.15;;;;;;;3.77;100.00;96773.03;5030401;28;20046;-79
2024/01/06 07:10:58;;;;;;;13.85;3.53;;;;;;;3.62;100.00;96784.00;5037498;28;20104;-80
2024/01/06 07:13:26;;;;;;;7.68;3.25;;;;;;;3.68;100.00;96788.19;5015354;28;20067;-81
2024/01/06 07:15:53;;;;;;;6.93;3.50;;;;;;;3.76;100.00;96792.09;5021655;28;20049;-81
2024/01/06 07:18:33;;;;;;;10.43;3.83;;;;;;;3.61;100.00;96787.75;5021709;28;20816;-80
2024/01/06 07:21:00;;;;;;;10.07;3.58;;;;;;;3.42;100.00;96796.88;5022313;28;20053;-80
2024/01/06 07:23:27;;;;;;;7.72;3.75;;;;;;;3.47;100.00;96804.81;5021168;28;20046;-80
2024/01/06 07:25:55;;;;;;;13.32;4.53;;;;;;;3.57;100.00;96792.09;5018435;28;20050;-79
2024/01/06 07:28:22;;;;;;;11.20;3.88;;;;;;;3.63;100.00;96779.44;5027150;28;20079;-80
2024/01/06 07:30:48;;;;;;;9.27;4.13;;;;;;;3.74;100.00;96787.00;5032940;28;20050;-80
2024/01/06 07:33:15;;;;;;;13.40;4.63;;;;;;;3.70;100.00;96787.88;5034212;28;20045;-80
2024/01/06 07:35:43;;;;;;;33.03;11.52;;;;;;;3.61;100.00;96797.69;5040255;28;20452;-80
2024/01/06 07:38:10;;;;;;;29.08;10.43;;;;;;;3.41;100.00;96796.06;5034395;28;20045;-80
2024/01/06 07:40:37;;;;;;;13.27;5.57;;;;;;;3.39;100.00;96810.81;5026437;28;20312;-80
2024/01/06 07:43:04;;;;;;;17.90;6.00;;;;;;;3.42;100.00;96808.38;5043070;28;20113;-80
2024/01/06 07:45:32;;;;;;;16.00;5.95;;;;;;;3.58;100.00;96800.94;5030793;28;20456;-79
2024/01/06 07:47:59;;;;;;;10.85;4.85;;;;;;;3.78;100.00;96816.66;5032050;28;20137;-81
2024/01/06 07:50:26;;;;;;;15.77;5.80;;;;;;;3.86;100.00;96809.84;5031798;28;20045;-82
2024/01/06 07:52:54;;;;;;;12.63;5.63;;;;;;;3.93;100.00;96811.06;5034857;28;20400;-79
2024/01/06 07:55:20;;;;;;;19.30;5.78;;;;;;;4.06;100.00;96809.53;5028228;28;20046;-81
2024/01/06 07:57:47;;;;;;;14.73;6.03;;;;;;;3.84;100.00;96818.19;5022106;28;20045;-83
2024/01/06 08:00:14;;;;;;;14.63;6.45;;;;;;;3.21;100.00;96827.66;5017763;28;20046;-85
2024/01/06 08:02:41;;;;;;;16.23;6.88;;;;;;;3.10;100.00;96827.78;5003832;28;20136;-81
2024/01/06 08:05:09;;;;;;;13.50;6.18;;;;;;;3.50;100.00;96836.34;5024273;28;20050;-82
2024/01/06 08:07:36;;;;;;;14.73;6.47;;;;;;;3.61;100.00;96837.81;5025754;28;20053;-79
2024/01/06 08:10:04;;;;;;;16.73;6.85;;;;;;;3.75;100.00;96831.44;5020057;28;20061;-81
2024/01/06 08:12:32;;;;;;;11.55;5.10;;;;;;;3.70;100.00;96836.06;5011890;28;20389;-80
2024/01/06 08:14:58;;;;;;;9.68;4.43;;;;;;;3.84;100.00;96834.25;5015091;28;20504;-79
2024/01/06 08:17:25;;;;;;;9.55;4.78;;;;;;;4.04;100.00;96841.97;5025670;28;20389;-80
2024/01/06 08:19:55;;;;;;;12.85;4.70;;;;;;;4.25;100.00;96848.59;5026444;28;20072;-78
2024/01/06 08:22:22;;;;;;;18.02;5.07;;;;;;;4.40;100.00;96848.31;5032508;28;20037;-75
2024/01/06 08:24:48;;;;;;;21.45;7.70;;;;;;;4.47;100.00;96849.81;5022535;28;20045;-76
2024/01/06 08:27:15;;;;;;;23.25;9.07;;;;;;;4.66;100.00;96853.22;5037677;28;20044;-77
2024/01/06 08:29:42;;;;;;;26.10;9.98;;;;;;;4.71;100.00;96861.19;5028349;28;20566;-79
2024/01/06 08:32:10;;;;;;;29.52;11.85;;;;;;;4.55;100.00;96847.25;5030523;28;20053;-78
2024/01/06 08:34:36;;;;;;;40.90;16.20;;;;;;;4.92;100.00;96865.88;5034240;28;20054;-80
2024/01/06 08:37:03;;;;;;;33.22;12.13;;;;;;;5.10;100.00;96858.81;5031433;28;20049;-79
2024/01/06 08:39:30;;;;;;;27.70;10.82;;;;;;;5.21;100.00;96868.28;5012680;28;20097;-79
2024/01/06 08:41:58;;;;;;;24.45;11.10;;;;;;;5.45;100.00;96876.06;5047552;28;20061;-79
2024/01/06 08:44:28;;;;;;;23.08;10.45;;;;;;;5.39;100.00;96882.66;5035046;28;20056;-80
2024/01/06 08:46:54;;;;;;;21.90;8.40;;;;;;;5.34;100.00;96867.44;5031924;28;20046;-79
2024/01/06 08:49:22;;;;;;;18.60;8.00;;;;;;;5.72;100.00;96881.41;5036089;28;20052;-78
2024/01/06 08:51:49;;;;;;;23.92;8.65;;;;;;;5.72;100.00;96878.72;5033696;28;20117;-79
2024/01/06 08:54:16;;;;;;;20.77;9.55;;;;;;;5.87;100.00;96873.06;5032842;28;20618;-78
2024/01/06 08:56:48;;;;;;;22.60;8.85;;;;;;;5.96;100.00;96873.13;5070922;28;20064;-79
2024/01/06 08:59:15;;;;;;;32.85;11.23;;;;;;;5.99;100.00;96891.31;5039323;28;20049;-79
2024/01/06 09:01:42;;;;;;;22.95;10.02;;;;;;;6.11;100.00;96888.91;5031905;28;20045;-79
2024/01/06 09:04:11;;;;;;;21.52;9.55;;;;;;;6.07;100.00;96875.25;5035063;28;20046;-79
2024/01/06 09:06:38;;;;;;;33.20;11.20;;;;;;;6.35;100.00;96889.38;5042167;28;20041;-79
2024/01/06 09:09:05;;;;;;;35.20;11.80;;;;;;;6.40;100.00;96880.41;5033081;28;20083;-79
2024/01/06 09:11:32;;;;;;;28.52;11.35;;;;;;;6.37;100.00;96889.09;5035018;28;20551;-79
2024/01/06 09:13:59;;;;;;;28.58;10.75;;;;;;;6.39;100.00;96886.88;5036586;28;20045;-78
2024/01/06 09:16:26;;;;;;;19.88;7.90;;;;;;;6.38;100.00;96885.28;5037869;28;20041;-79
2024/01/06 09:18:53;;;;;;;21.83;7.03;;;;;;;6.51;100.00;96889.81;5042616;28;20318;-79
2024/01/06 09:21:20;;;;;;;15.80;6.22;;;;;;;6.62;100.00;96885.78;5042185;28;20057;-78
2024/01/06 09:23:46;;;;;;;14.32;5.57;;;;;;;6.62;100.00;96886.56;5042097;28;20128;-79
2024/01/06 09:26:13;;;;;;;12.25;5.95;;;;;;;6.70;100.00;96887.72;5049759;28;20120;-80
2024/01/06 09:28:40;;;;;;;17.00;6.63;;;;;;;6.82;100.00;96896.81;5038711;28;20100;-78
2024/01/06 09:31:07;;;;;;;19.48;8.25;;;;;;;6.83;100.00;96893.03;5036525;28;20049;-79
2024/01/06 09:33:34;;;;;;;35.38;11.95;;;;;;;6.63;100.00;96890.81;5053470;28;20041;-79
2024/01/06 09:36:01;;;;;;;35.25;12.23;;;;;;;6.47;100.00;96897.72;5045866;28;20092;-79
2024/01/06 09:38:28;;;;;;;35.88;12.70;;;;;;;6.62;100.00;96888.47;5047195;28;20049;-78
2024/01/06 09:40:57;;;;;;;38.92;13.15;;;;;;;6.84;100.00;96893.78;5053548;28;20055;-79
2024/01/06 09:43:25;;;;;;;43.53;13.65;;;;;;;7.08;100.00;96894.25;5058555;28;20501;-78
2024/01/06 09:45:58;;;;;;;40.17;12.50;;;;;;;7.24;100.00;96892.72;5060340;28;20653;-79
2024/01/06 09:48:30;;;;;;;100.45;23.42;;;;;;;7.22;100.00;96888.75;5052646;28;20691;-79
2024/01/06 09:51:02;;;;;;;90.93;22.17;;;;;;;7.34;100.00;96884.38;5048684;28;20046;-79
2024/01/06 09:53:37;;;;;;;58.65;14.48;;;;;;;7.44;100.00;96884.06;5050169;28;20076;-79
2024/01/06 09:56:06;;;;;;;46.55;13.27;;;;;;;7.43;100.00;96881.72;5062523;28;20052;-79
2024/01/06 09:58:35;;;;;;;55.05;14.88;;;;;;;7.56;100.00;96891.56;5050802;28;20053;-79
2024/01/06 10:01:02;;;;;;;49.53;13.98;;;;;;;7.58;100.00;96900.13;5048098;28;20045;-79
2024/01/06 10:03:29;;;;;;;63.22;17.27;;;;;;;7.30;100.00;96890.69;5049394;28;20052;-77
2024/01/06 10:06:00;;;;;;;53.83;17.55;;;;;;;7.35;100.00;96887.84;5041555;28;20136;-78
2024/01/06 10:08:27;;;;;;;55.95;17.17;;;;;;;7.58;100.00;96886.66;5046342;28;20912;-78
2024/01/06 10:10:54;;;;;;;58.80;17.25;;;;;;;7.72;100.00;96899.97;5045467;28;20807;-79
2024/01/06 10:13:21;;;;;;;30.52;11.52;;;;;;;7.78;100.00;96893.34;5040115;28;20450;-79
2024/01/06 10:15:48;;;;;;;23.90;9.70;;;;;;;7.78;100.00;96898.72;5056341;28;20049;-79
2024/01/06 10:18:14;;;;;;;21.92;8.52;;;;;;;7.88;100.00;96896.53;5054322;28;20065;-79
2024/01/06 10:20:44;;;;;;;17.10;7.53;;;;;;;7.93;100.00;96906.34;5051563;28;20046;-78
2024/01/06 10:23:11;;;;;;;15.00;5.78;;;;;;;8.10;100.00;96909.84;5018180;28;20057;-79
2024/01/06 10:25:39;;;;;;;15.68;5.28;;;;;;;7.99;100.00;96903.22;5027086;28;20095;-79
2024/01/06 10:28:05;;;;;;;11.30;4.50;;;;;;;7.88;100.00;96907.31;5033280;28;20050;-78
2024/01/06 10:30:32;;;;;;;13.48;5.25;;;;;;;7.91;100.00;96906.69;5033068;28;20076;-79
2024/01/06 10:32:59;;;;;;;9.98;4.22;;;;;;;7.78;100.00;96906.81;5037872;28;20057;-79
2024/01/06 10:35:26;;;;;;;9.18;4.07;;;;;;;7.91;100.00;96911.28;5034684;28;20050;-81
2024/01/06 10:37:54;;;;;;;16.00;4.90;;;;;;;7.83;100.00;96903.97;5026746;28;20411;-78
2024/01/06 10:40:20;;;;;;;10.48;4.10;;;;;;;7.87;100.00;96894.94;5028171;28;20091;-77
2024/01/06 10:42:47;;;;;;;9.38;4.30;;;;;;;7.94;100.00;96902.56;5033722;28;20530;-79
2024/01/06 10:45:14;;;;;;;11.05;3.85;;;;;;;7.98;100.00;96907.00;5031981;28;20117;-80
2024/01/06 10:47:45;;;;;;;8.93;4.13;;;;;;;8.24;100.00;96907.00;5024725;28;20163;-80
2024/01/06 10:50:14;;;;;;;12.55;4.47;;;;;;;8.46;100.00;96904.19;5030387;28;20045;-79
2024/01/06 10:52:42;;;;;;;10.55;4.78;;;;;;;8.65;100.00;96909.22;5036758;28;20064;-79
2024/01/06 10:55:09;;;;;;;10.45;4.82;;;;;;;8.56;100.00;96906.56;5020943;28;20056;-78
2024/01/06 10:57:42;;;;;;;13.00;4.00;;;;;;;8.64;100.00;96913.06;5030270;28;20057;-78
2024/01/06 11:00:10;;;;;;;8.82;4.45;;;;;;;8.59;100.00;96897.81;5030414;28;20054;-80
2024/01/06 11:02:38;;;;;;;13.57;4.53;;;;;;;8.77;100.00;96910.16;5015258;28;20045;-79
2024/01/06 11:05:07;;;;;;;8.75;4.25;;;;;;;8.72;100.00;96904.16;5032686;28;20056;-78
2024/01/06 11:07:35;;;;;;;12.85;4.90;;;;;;;8.58;100.00;96925.91;5028410;28;20412;-82
2024/01/06 11:10:06;;;;;;;12.27;4.50;;;;;;;8.75;100.00;96920.47;5030115;28;20065;-78
2024/01/06 11:12:33;;;;;;;10.00;4.85;;;;;;;8.80;100.00;96916.03;5033835;28;20374;-77
2024/01/06 11:15:00;;;;;;;13.07;5.05;;;;;;;8.83;100.00;96923.50;5023288;28;20074;-78
2024/01/06 11:17:57;;;;;;;8.30;4.60;;;;;;;8.60;100.00;96923.69;5022215;28;20077;-79
2024/01/06 11:20:26;;;;;;;13.35;3.35;;;;;;;8.40;100.00;96923.53;5043451;28;20060;-79
2024/01/06 11:22:53;;;;;;;7.05;3.15;;;;;;;8.71;100.00;96914.16;5015249;28;20242;-79
2024/01/06 11:25:22;;;;;;;9.07;3.35;;;;;;;8.75;100.00;96908.88;5031275;28;20136;-79
2024/01/06 11:27:50;;;;;;;7.22;3.10;;;;;;;8.91;100.00;96917.28;5037220;28;20080;-78
2024/01/06 11:30:29;;;;;;;9.82;3.75;;;;;;;8.98;100.00;96907.56;5004363;28;20049;-78